Time;durP1;ratioP1;P1;durP2;ratioP2;P2;SDS_P1;SDS_P2;PMS_P1;PMS_P2;Temp;Humidity;BMP_temperature;BMP_pressure;BME280_temperature;BME280_humidity;BME280_pressure;Samples;Min_cycle;Max_cycle;Signal;HPM_P1;HPM_P2
2022/02/10 00:21:22;;;;;;;15.45;6.95;;;7.10;99.90;;;;;;5051378;28;20108;-67
2022/02/10 00:35:10;;;;;;;16.33;7.15;;;7.00;99.90;;;;;;5061091;28;20049;-67
2022/02/10 00:37:48;;;;;;;22.77;7.88;;;7.00;99.90;;;;;;5040686;28;20052;-67
2022/02/10 00:40:17;;;;;;;21.05;8.43;;;7.00;99.90;;;;;;5042714;28;20112;-67
2022/02/10 00:42:43;;;;;;;21.20;8.68;;;7.00;99.90;;;;;;5040935;28;20070;-67
2022/02/10 00:45:09;;;;;;;21.33;8.98;;;7.00;99.90;;;;;;5028962;28;20483;-67
2022/02/10 00:47:50;;;;;;;20.60;8.93;;;7.00;99.90;;;;;;5028744;28;20056;-67
2022/02/10 00:50:16;;;;;;;22.60;9.82;;;7.00;99.90;;;;;;5045240;28;20487;-67
2022/02/10 00:52:44;;;;;;;26.48;9.63;;;7.00;99.90;;;;;;5054923;28;20047;-67
2022/02/10 00:55:10;;;;;;;27.50;10.98;;;7.00;99.90;;;;;;5060461;28;20072;-67
2022/02/10 00:57:36;;;;;;;23.52;10.02;;;7.00;99.90;;;;;;5018473;28;20485;-67
2022/02/10 01:13:44;;;;;;;28.23;10.98;;;7.00;99.90;;;;;;5060332;28;20048;-67
2022/02/10 01:32:01;;;;;;;17.52;7.32;;;7.00;99.90;;;;;;5050055;28;20049;-67
2022/02/10 01:34:28;;;;;;;15.27;7.38;;;7.00;99.90;;;;;;5046665;28;20059;-67
2022/02/10 01:36:54;;;;;;;16.25;6.65;;;7.00;99.90;;;;;;5014780;28;20094;-67
2022/02/10 01:39:24;;;;;;;18.02;5.65;;;7.00;99.90;;;;;;5032552;28;20049;-67
2022/02/10 02:03:18;;;;;;;5.78;3.78;;;6.90;99.90;;;;;;5050576;28;20061;-67
2022/02/10 02:03:55;;;;;;;5.63;2.90;;;6.90;99.90;;;;;;5051159;28;20888;-67
2022/02/10 02:06:27;;;;;;;4.82;2.60;;;6.80;99.90;;;;;;5042251;28;20044;-67
2022/02/10 02:08:53;;;;;;;3.35;2.20;;;6.80;99.90;;;;;;5052335;28;20072;-67
2022/02/10 02:11:26;;;;;;;4.40;2.28;;;6.80;99.90;;;;;;5038695;28;20478;-67
2022/02/10 02:13:53;;;;;;;4.82;2.08;;;6.80;99.90;;;;;;5054819;28;20049;-67
2022/02/10 02:16:19;;;;;;;5.07;2.00;;;6.90;99.90;;;;;;5032061;28;20039;-67
2022/02/10 02:18:45;;;;;;;3.85;1.77;;;6.80;99.90;;;;;;5031664;28;20127;-67
2022/02/10 02:21:18;;;;;;;8.75;1.65;;;6.80;99.90;;;;;;5047864;28;20071;-67
2022/02/10 02:23:44;;;;;;;2.53;1.50;;;6.80;99.90;;;;;;5049827;28;20522;-67
2022/02/10 02:26:17;;;;;;;4.93;1.75;;;6.90;99.90;;;;;;5049524;28;20048;-67
2022/02/10 02:28:47;;;;;;;;;;;6.80;99.90;;;;;;5060644;28;20120;-67
2022/02/10 02:31:24;;;;;;;2.28;1.77;;;6.90;99.90;;;;;;5032403;28;19928;-67
2022/02/10 03:06:36;;;;;;;4.82;2.83;;;6.80;99.90;;;;;;5049398;28;20483;-67
2022/02/10 03:09:08;;;;;;;7.53;3.22;;;6.80;99.90;;;;;;5050801;28;20041;-67
2022/02/10 03:11:38;;;;;;;4.85;3.30;;;6.80;99.90;;;;;;5049158;28;20033;-67
2022/02/10 03:14:09;;;;;;;3.63;3.20;;;6.80;99.90;;;;;;5050980;28;20041;-67
2022/02/10 03:19:19;;;;;;;8.60;3.35;;;6.80;99.90;;;;;;5046008;28;20491;-67
2022/02/10 04:08:08;;;;;;;13.60;4.07;;;6.50;99.90;;;;;;5049915;28;20071;-67
2022/02/10 04:21:04;;;;;;;9.27;3.53;;;6.60;99.90;;;;;;5047510;28;20082;-68
2022/02/10 04:26:21;;;;;;;6.57;4.00;;;6.60;99.90;;;;;;5028850;28;20533;-68
2022/02/10 04:29:20;;;;;;;5.50;2.70;;;6.60;99.90;;;;;;5040167;28;20055;-68
2022/02/10 04:56:53;;;;;;;11.40;4.60;;;6.70;99.90;;;;;;5028246;28;20045;-67
2022/02/10 04:59:30;;;;;;;11.65;4.70;;;6.70;99.90;;;;;;5046692;28;20068;-68
2022/02/10 05:02:22;;;;;;;7.80;4.38;;;6.70;99.90;;;;;;5035243;28;20049;-68
2022/02/10 05:21:11;;;;;;;17.05;8.48;;;6.70;99.90;;;;;;5047484;28;20057;-67
2022/02/10 05:34:37;;;;;;;9.98;6.05;;;6.70;99.90;;;;;;5046691;28;20041;-68
2022/02/10 05:37:04;;;;;;;9.50;7.38;;;6.70;99.90;;;;;;5054592;28;20053;-67
2022/02/10 05:39:33;;;;;;;15.65;10.32;;;6.70;99.90;;;;;;5042118;28;20804;-68
2022/02/10 05:42:34;;;;;;;13.18;8.40;;;6.70;99.90;;;;;;5029223;28;20087;-67
2022/02/10 07:54:15;;;;;;;22.13;8.73;;;6.30;99.90;;;;;;5038047;28;20173;-68
2022/02/10 07:56:57;;;;;;;19.27;6.13;;;6.30;99.90;;;;;;5033452;28;20061;-68
2022/02/10 09:20:52;;;;;;;18.85;4.10;;;7.10;99.90;;;;;;5016964;28;20053;-68
2022/02/10 09:56:07;;;;;;;9.48;2.85;;;7.10;99.90;;;;;;5035233;28;20061;-69
2022/02/10 10:01:27;;;;;;;14.80;1.95;;;7.20;99.90;;;;;;5032214;28;20507;-69
2022/02/10 10:03:57;;;;;;;4.97;1.80;;;7.20;99.90;;;;;;5044512;28;20041;-69
2022/02/10 10:07:13;;;;;;;12.90;2.88;;;7.20;99.90;;;;;;5038907;28;20287;-69
2022/02/10 10:15:38;;;;;;;14.40;3.58;;;7.40;99.90;;;;;;5037481;28;20132;-69
2022/02/10 10:18:42;;;;;;;20.38;2.50;;;7.30;99.90;;;;;;5028273;28;20049;-70
2022/02/10 10:21:26;;;;;;;19.17;2.72;;;7.40;99.90;;;;;;5030461;28;20064;-69
2022/02/10 10:24:44;;;;;;;19.08;3.05;;;7.30;99.90;;;;;;5037379;28;20056;-69
2022/02/10 10:44:59;;;;;;;8.68;1.88;;;7.70;99.90;;;;;;5042665;28;20053;-68
2022/02/10 10:52:47;;;;;;;4.78;1.15;;;7.90;99.90;;;;;;4986430;28;20291;-68
2022/02/10 10:55:31;;;;;;;19.35;4.05;;;7.90;99.90;;;;;;5005878;28;20083;-68
2022/02/10 10:58:08;;;;;;;24.05;3.08;;;7.90;99.90;;;;;;5022005;28;20061;-68
2022/02/10 11:00:56;;;;;;;1.20;0.65;;;7.90;99.90;;;;;;5026500;28;20510;-68
2022/02/10 12:00:06;;;;;;;9.50;1.85;;;8.50;99.90;;;;;;5037219;28;20059;-66
2022/02/10 13:02:48;;;;;;;8.98;2.35;;;8.30;99.90;;;;;;5039754;28;20044;-66
2022/02/10 14:13:15;;;;;;;11.95;1.52;;;7.70;99.90;;;;;;5049309;28;20041;-67
2022/02/10 14:23:18;;;;;;;11.68;3.10;;;7.60;99.90;;;;;;5048630;28;20084;-70
2022/02/10 14:25:55;;;;;;;24.23;3.78;;;7.60;99.90;;;;;;5028900;28;20056;-69
2022/02/10 14:28:22;;;;;;;13.55;3.28;;;7.50;99.90;;;;;;5045043;28;20040;-69
2022/02/10 14:30:50;;;;;;;18.80;4.00;;;7.50;99.90;;;;;;5034631;28;20044;-69
2022/02/10 14:33:23;;;;;;;18.15;3.42;;;7.40;99.90;;;;;;5044548;28;20072;-69
2022/02/10 14:35:58;;;;;;;19.27;3.20;;;7.30;99.90;;;;;;5034507;28;21051;-69
2022/02/10 16:18:10;;;;;;;11.60;2.03;;;6.00;99.90;;;;;;5023868;28;20131;-68
2022/02/10 16:20:36;;;;;;;12.15;1.83;;;5.90;99.90;;;;;;5030674;28;20044;-68
2022/02/10 16:23:15;;;;;;;9.95;1.45;;;5.90;99.90;;;;;;5048875;28;20503;-68
2022/02/10 16:25:47;;;;;;;8.25;1.33;;;5.80;99.90;;;;;;5038394;28;20037;-68
2022/02/10 16:30:48;;;;;;;10.50;1.70;;;5.80;99.90;;;;;;5044672;28;20522;-68
2022/02/10 16:33:14;;;;;;;9.50;1.50;;;5.80;99.90;;;;;;5029274;28;20044;-68
2022/02/10 16:35:42;;;;;;;10.05;2.50;;;5.70;99.90;;;;;;5044701;28;20056;-68
2022/02/10 16:38:09;;;;;;;12.05;1.58;;;5.70;99.90;;;;;;5043409;28;20630;-68
2022/02/10 16:40:39;;;;;;;11.60;2.70;;;5.70;99.90;;;;;;5035069;28;20502;-68
2022/02/10 16:43:05;;;;;;;18.83;2.25;;;5.70;99.90;;;;;;5034484;28;20087;-68
2022/02/10 16:45:31;;;;;;;25.50;3.65;;;5.60;99.90;;;;;;5034444;28;20060;-69
2022/02/10 16:47:58;;;;;;;14.88;2.10;;;5.60;99.90;;;;;;5046089;28;20074;-68
2022/02/10 16:50:24;;;;;;;17.27;1.85;;;5.70;99.90;;;;;;5044187;28;20060;-68
2022/02/10 16:52:59;;;;;;;18.20;2.97;;;5.60;99.90;;;;;;5039951;28;20056;-68
2022/02/10 16:55:39;;;;;;;10.50;2.28;;;5.60;99.90;;;;;;5027069;28;20557;-68
2022/02/10 17:17:19;;;;;;;5.30;1.05;;;5.40;99.90;;;;;;5027367;28;20081;-68
2022/02/10 17:35:16;;;;;;;13.57;1.98;;;5.20;99.90;;;;;;5047919;28;20078;-68
2022/02/10 17:51:31;;;;;;;19.88;3.97;;;4.90;99.90;;;;;;5029916;28;20049;-68
2022/02/10 17:54:00;;;;;;;16.65;2.30;;;4.90;99.90;;;;;;5027918;28;20047;-68
2022/02/10 17:56:27;;;;;;;8.23;1.75;;;4.90;99.90;;;;;;5044283;28;20037;-69
2022/02/10 17:58:53;;;;;;;13.60;2.30;;;4.90;99.90;;;;;;5054503;28;20037;-68
2022/02/10 18:01:19;;;;;;;16.00;2.40;;;4.90;99.90;;;;;;5052545;28;20067;-68
2022/02/10 18:03:45;;;;;;;17.80;2.40;;;4.90;99.90;;;;;;5031208;28;20049;-68
2022/02/10 18:06:26;;;;;;;14.20;2.40;;;4.90;99.90;;;;;;5030015;28;20037;-68
2022/02/10 18:09:28;;;;;;;17.05;2.80;;;4.90;99.90;;;;;;5060537;28;20047;-68
2022/02/10 18:14:30;;;;;;;16.50;2.08;;;4.80;99.90;;;;;;5043314;28;20076;-68
2022/02/10 18:17:04;;;;;;;26.60;2.90;;;4.80;99.90;;;;;;5050836;28;20519;-68
2022/02/10 18:19:38;;;;;;;22.27;3.60;;;4.70;99.90;;;;;;5031272;28;20037;-68
2022/02/10 18:22:25;;;;;;;15.00;1.50;;;4.70;99.90;;;;;;5042198;28;20068;-68
2022/02/10 18:27:28;;;;;;;15.05;2.05;;;4.70;99.90;;;;;;5023915;28;20108;-68
2022/02/10 19:10:26;;;;;;;16.33;2.47;;;4.80;99.90;;;;;;4972965;28;20057;-68
2022/02/10 19:12:56;;;;;;;7.47;0.98;;;4.70;99.90;;;;;;5006351;28;20598;-68
2022/02/10 19:15:33;;;;;;;15.70;2.35;;;4.70;99.90;;;;;;5016932;28;20056;-68
2022/02/10 19:18:03;;;;;;;13.23;1.70;;;4.80;99.90;;;;;;5042395;28;20388;-68
2022/02/10 19:20:29;;;;;;;21.60;2.30;;;4.70;99.90;;;;;;5039584;28;20119;-68
2022/02/10 19:22:55;;;;;;;17.05;2.25;;;4.70;99.90;;;;;;5030761;28;20124;-68
2022/02/10 19:25:21;;;;;;;10.25;1.77;;;4.70;99.90;;;;;;5045214;28;20399;-68
2022/02/10 19:27:50;;;;;;;6.82;0.47;;;4.70;99.90;;;;;;5046620;28;20048;-74
2022/02/10 19:30:19;;;;;;;4.30;0.40;;;4.70;99.90;;;;;;5046727;28;20102;-70
2022/02/10 19:33:00;;;;;;;19.95;2.03;;;4.70;99.90;;;;;;5037519;28;20149;-70
2022/02/10 19:35:28;;;;;;;10.93;1.88;;;4.70;99.90;;;;;;5045356;28;20096;-68
2022/02/10 19:38:01;;;;;;;13.95;1.80;;;4.70;99.90;;;;;;5047185;28;20055;-69
2022/02/10 19:40:33;;;;;;;25.85;6.75;;;4.70;99.90;;;;;;5044978;28;20045;-69
2022/02/10 19:42:59;;;;;;;14.13;2.78;;;4.70;99.90;;;;;;5048312;28;20044;-67
2022/02/10 19:45:25;;;;;;;39.92;8.50;;;4.60;99.90;;;;;;5046820;28;20111;-68
2022/02/10 19:47:51;;;;;;;26.48;6.95;;;4.60;99.90;;;;;;5016888;28;20025;-68
2022/02/10 19:50:24;;;;;;;45.35;10.32;;;4.50;99.90;;;;;;5036533;28;20056;-68
2022/02/10 19:52:52;;;;;;;51.22;11.15;;;4.40;99.90;;;;;;5040919;28;20128;-68
2022/02/10 19:55:21;;;;;;;48.03;12.32;;;4.40;99.90;;;;;;5041070;28;20480;-68
2022/02/10 19:57:50;;;;;;;76.37;18.27;;;4.40;99.90;;;;;;5031038;28;20046;-68
2022/02/10 20:00:23;;;;;;;21.25;4.97;;;4.40;99.90;;;;;;5027605;28;20127;-68
2022/02/10 20:02:50;;;;;;;43.30;10.77;;;4.40;99.90;;;;;;5027807;28;20055;-69
2022/02/10 20:05:20;;;;;;;23.58;5.18;;;4.40;99.90;;;;;;5029035;28;20045;-69
2022/02/10 20:07:51;;;;;;;27.83;5.25;;;4.50;99.90;;;;;;5045121;28;20053;-69
2022/02/10 20:10:17;;;;;;;25.38;3.75;;;4.40;99.90;;;;;;5032799;28;20049;-69
2022/02/10 20:12:43;;;;;;;18.08;3.35;;;4.40;99.90;;;;;;5034102;28;20978;-69
2022/02/10 20:15:11;;;;;;;19.83;2.83;;;4.40;99.90;;;;;;5024265;28;20056;-69
2022/02/10 20:17:39;;;;;;;18.05;3.53;;;4.40;99.90;;;;;;5025783;28;20046;-69
2022/02/10 20:20:06;;;;;;;16.80;3.20;;;4.40;99.90;;;;;;5025341;28;20431;-69
2022/02/10 20:22:36;;;;;;;18.85;4.88;;;4.30;99.90;;;;;;5046959;28;20049;-69
2022/02/10 20:25:03;;;;;;;27.55;3.72;;;4.30;99.90;;;;;;5029673;28;20049;-69
2022/02/10 20:27:29;;;;;;;24.80;4.38;;;4.40;99.90;;;;;;5023924;28;20471;-69
2022/02/10 20:29:54;;;;;;;19.80;3.88;;;4.40;99.90;;;;;;5034588;28;20051;-69
2022/02/10 20:32:20;;;;;;;18.02;4.40;;;4.40;99.90;;;;;;5043556;28;20117;-69
2022/02/10 20:34:47;;;;;;;15.85;3.05;;;4.30;99.90;;;;;;5030871;28;20037;-69
2022/02/10 20:37:13;;;;;;;16.05;2.40;;;4.30;99.90;;;;;;5001944;28;20435;-69
2022/02/10 20:39:39;;;;;;;14.30;3.40;;;4.30;99.90;;;;;;5031269;28;20102;-69
2022/02/10 20:42:10;;;;;;;13.85;3.25;;;4.30;99.90;;;;;;5012747;28;20130;-69
2022/02/10 20:44:37;;;;;;;17.33;3.40;;;4.30;99.90;;;;;;5026808;28;20132;-69
2022/02/10 20:47:03;;;;;;;20.13;3.85;;;4.30;99.90;;;;;;5047222;28;20048;-69
2022/02/10 20:49:29;;;;;;;16.42;2.85;;;4.30;99.90;;;;;;5027536;28;20114;-69
2022/02/10 20:51:56;;;;;;;22.13;3.53;;;4.20;99.90;;;;;;5046736;28;20628;-69
2022/02/10 20:54:23;;;;;;;29.50;3.88;;;4.20;99.90;;;;;;5029673;28;20084;-69
2022/02/10 20:56:49;;;;;;;23.17;3.20;;;4.20;99.90;;;;;;5046151;28;20085;-69
2022/02/10 20:59:57;;;;;;;26.73;3.03;;;4.20;99.90;;;;;;5020859;28;20080;-69
2022/02/10 21:02:09;;;;;;;16.88;3.20;;;4.20;99.90;;;;;;5029509;28;20092;-69
2022/02/10 21:04:41;;;;;;;21.17;3.55;;;4.10;99.90;;;;;;5037078;28;20479;-73
2022/02/10 21:07:26;;;;;;;17.73;2.85;;;4.10;99.90;;;;;;5026902;28;20080;-69
2022/02/10 21:12:18;;;;;;;21.00;2.80;;;4.00;99.90;;;;;;5041811;28;20056;-69
2022/02/10 21:14:45;;;;;;;17.92;2.50;;;4.00;99.90;;;;;;5017565;28;20508;-69
2022/02/10 21:17:13;;;;;;;21.58;2.97;;;3.90;99.90;;;;;;5025438;28;20386;-69
2022/02/10 21:19:42;;;;;;;24.42;2.47;;;3.90;99.90;;;;;;5044000;28;20055;-69
2022/02/10 21:22:12;;;;;;;16.13;2.40;;;3.90;99.90;;;;;;5047761;28;20080;-69
2022/02/10 21:24:47;;;;;;;14.60;3.53;;;3.90;99.90;;;;;;5064342;28;20125;-69
2022/02/10 21:27:40;;;;;;;18.55;2.63;;;3.90;99.90;;;;;;5048026;28;20044;-70
2022/02/10 21:30:07;;;;;;;22.27;2.50;;;3.90;99.90;;;;;;5048072;28;20087;-70
2022/02/10 21:32:45;;;;;;;18.77;3.47;;;3.80;99.90;;;;;;5038290;28;20037;-69
2022/02/10 21:38:29;;;;;;;22.73;3.08;;;3.80;99.90;;;;;;5046351;28;20466;-69
2022/02/10 21:40:35;;;;;;;16.17;3.05;;;3.70;99.90;;;;;;5039952;28;20170;-69
2022/02/10 22:09:33;;;;;;;10.35;2.38;;;3.50;99.90;;;;;;5046891;28;20048;-70
2022/02/10 22:20:05;;;;;;;14.27;2.75;;;3.50;99.90;;;;;;5041855;28;20078;-69
2022/02/10 22:22:38;;;;;;;14.05;2.13;;;3.50;99.90;;;;;;5060220;28;20064;-70
2022/02/10 22:25:10;;;;;;;12.85;2.10;;;3.50;99.90;;;;;;5023324;28;20403;-70
2022/02/10 22:27:41;;;;;;;28.60;2.88;;;3.60;99.90;;;;;;5051676;28;20033;-69
2022/02/10 22:30:17;;;;;;;9.13;1.67;;;3.60;99.90;;;;;;5045197;28;20409;-69
2022/02/10 22:33:26;;;;;;;9.20;2.30;;;3.60;99.90;;;;;;5046968;28;20092;-70
2022/02/10 22:35:35;;;;;;;12.90;2.33;;;3.70;99.90;;;;;;5036825;28;20061;-70
2022/02/10 22:38:01;;;;;;;16.40;2.13;;;3.70;99.90;;;;;;5026803;28;20040;-70
2022/02/10 22:41:27;;;;;;;12.80;2.05;;;3.80;99.90;;;;;;5027217;28;20052;-70
2022/02/10 22:43:22;;;;;;;24.48;2.60;;;3.80;99.90;;;;;;5013728;28;20060;-70
2022/02/10 22:45:48;;;;;;;18.77;2.28;;;3.70;99.90;;;;;;5024884;28;20447;-70
2022/02/10 22:48:14;;;;;;;19.27;3.53;;;3.70;99.90;;;;;;5037150;28;21042;-70
2022/02/10 22:50:40;;;;;;;18.35;3.13;;;3.70;99.90;;;;;;5046412;28;20091;-70
2022/02/10 22:53:07;;;;;;;16.10;2.47;;;3.70;99.90;;;;;;5036660;28;20049;-70
2022/02/10 22:55:33;;;;;;;13.00;2.10;;;3.70;99.90;;;;;;5034460;28;20048;-70
2022/02/10 22:57:59;;;;;;;19.55;2.92;;;3.60;99.90;;;;;;5047189;28;20045;-70
2022/02/10 23:00:34;;;;;;;21.20;2.75;;;3.60;99.90;;;;;;5015369;28;20071;-70
2022/02/10 23:03:00;;;;;;;13.23;2.17;;;3.60;99.90;;;;;;5033950;28;20111;-70
2022/02/10 23:05:26;;;;;;;15.90;2.05;;;3.60;99.90;;;;;;5046485;28;20037;-70
2022/02/10 23:07:57;;;;;;;23.08;3.13;;;3.60;99.90;;;;;;5039502;28;20490;-69
2022/02/10 23:13:10;;;;;;;17.70;2.30;;;3.60;99.90;;;;;;5035888;28;20143;-70
2022/02/10 23:15:39;;;;;;;13.57;2.38;;;3.70;99.90;;;;;;5044456;28;20109;-70
2022/02/10 23:18:10;;;;;;;12.43;1.48;;;3.70;99.90;;;;;;5047810;28;20513;-69
2022/02/10 23:20:37;;;;;;;21.38;2.33;;;3.70;99.90;;;;;;5046663;28;20530;-70
2022/02/10 23:23:06;;;;;;;16.48;2.13;;;3.70;99.90;;;;;;5041899;28;20107;-69
2022/02/10 23:25:33;;;;;;;15.75;2.70;;;3.70;99.90;;;;;;5026248;28;20081;-70
2022/02/10 23:28:00;;;;;;;9.48;1.75;;;3.80;99.90;;;;;;5032637;28;20300;-70
2022/02/10 23:30:27;;;;;;;15.82;2.17;;;3.80;99.90;;;;;;5023527;28;20122;-70
2022/02/10 23:32:57;;;;;;;13.30;1.70;;;3.70;99.90;;;;;;5035791;28;20045;-70
2022/02/10 23:38:08;;;;;;;10.95;2.35;;;3.60;99.90;;;;;;5031015;28;19924;-69
2022/02/10 23:40:43;;;;;;;9.10;1.77;;;3.50;99.90;;;;;;5026381;28;20514;-70
2022/02/10 23:43:09;;;;;;;13.25;2.17;;;3.40;99.90;;;;;;5025442;28;20049;-70
2022/02/10 23:45:40;;;;;;;12.18;1.70;;;3.40;99.90;;;;;;5024317;28;20794;-69
2022/02/10 23:48:06;;;;;;;12.20;1.58;;;3.30;99.90;;;;;;5024186;28;20346;-70
2022/02/10 23:50:32;;;;;;;18.17;2.03;;;3.20;99.90;;;;;;5027660;28;20547;-70
2022/02/10 23:52:58;;;;;;;14.10;2.40;;;3.20;99.90;;;;;;5022476;28;20041;-69
2022/02/10 23:55:31;;;;;;;16.88;1.90;;;3.10;99.90;;;;;;5038957;28;20041;-69
